Time;durP1;ratioP1;P1;durP2;ratioP2;P2;SDS_P1;SDS_P2;PMS_P1;PMS_P2;Temp;Humidity;BMP_temperature;BMP_pressure;BME280_temperature;BME280_humidity;BME280_pressure;Samples;Min_cycle;Max_cycle;Signal;HPM_P1;HPM_P2
2021/12/24 00:01:24;;;;;;;36.60;20.35;;;;;;;;;;5073194;28;20031;-76
2021/12/24 00:03:50;;;;;;;41.25;24.55;;;;;;;;;;5072830;28;20032;-76
2021/12/24 00:06:17;;;;;;;41.65;27.60;;;;;;;;;;5073523;28;20058;-76
2021/12/24 00:08:45;;;;;;;33.70;21.42;;;;;;;;;;5072989;28;20024;-76
2021/12/24 00:11:11;;;;;;;36.83;24.23;;;;;;;;;;5072809;28;20103;-76
2021/12/24 00:13:43;;;;;;;33.60;20.63;;;;;;;;;;5071765;28;20410;-76
2021/12/24 00:35:31;;;;;;;63.08;32.92;;;;;;;;;;5072919;28;20044;-76
2021/12/24 00:40:44;;;;;;;53.80;31.17;;;;;;;;;;5073028;28;20511;-75
2021/12/24 00:43:11;;;;;;;47.35;30.25;;;;;;;;;;5072952;28;20016;-75
2021/12/24 00:45:39;;;;;;;47.05;27.88;;;;;;;;;;5071617;28;20070;-77
2021/12/24 00:48:07;;;;;;;45.53;28.75;;;;;;;;;;5072697;28;20032;-76
2021/12/24 00:50:46;;;;;;;51.85;27.58;;;;;;;;;;5072966;28;20020;-76
2021/12/24 00:56:00;;;;;;;52.72;30.58;;;;;;;;;;5072766;28;20047;-76
2021/12/24 00:58:26;;;;;;;60.67;35.75;;;;;;;;;;5072336;28;20442;-77
2021/12/24 01:00:52;;;;;;;69.97;39.92;;;;;;;;;;5072820;28;20029;-77
2021/12/24 01:03:19;;;;;;;72.07;41.47;;;;;;;;;;5072203;28;20102;-76
2021/12/24 01:05:45;;;;;;;55.78;33.60;;;;;;;;;;5072629;28;20082;-76
2021/12/24 01:08:12;;;;;;;48.00;28.48;;;;;;;;;;5072705;28;20031;-76
2021/12/24 01:10:42;;;;;;;75.70;40.22;;;;;;;;;;5071138;28;20082;-77
2021/12/24 01:13:08;;;;;;;53.83;29.75;;;;;;;;;;5072495;28;20359;-77
2021/12/24 01:15:38;;;;;;;38.38;22.50;;;;;;;;;;5072249;28;20037;-76
2021/12/24 01:18:16;;;;;;;28.20;17.88;;;;;;;;;;5072526;28;20025;-76
2021/12/24 01:20:50;;;;;;;31.55;19.38;;;;;;;;;;5072404;28;20123;-75
2021/12/24 01:25:50;;;;;;;23.00;16.20;;;;;;;;;;5072385;28;20123;-76
2021/12/24 01:39:25;;;;;;;31.98;19.15;;;;;;;;;;5071844;28;20040;-77
2021/12/24 01:44:37;;;;;;;34.65;21.05;;;;;;;;;;5072271;28;20094;-76
2021/12/24 01:47:05;;;;;;;31.80;19.45;;;;;;;;;;5070832;28;20025;-76
2021/12/24 01:49:31;;;;;;;27.55;17.58;;;;;;;;;;5071981;28;20024;-76
2021/12/24 01:51:58;;;;;;;28.35;17.67;;;;;;;;;;5072004;28;20024;-76
2021/12/24 01:54:24;;;;;;;37.38;23.08;;;;;;;;;;5071785;28;20028;-76
2021/12/24 01:56:51;;;;;;;43.03;25.75;;;;;;;;;;5070340;28;20032;-76
2021/12/24 01:59:20;;;;;;;46.85;25.55;;;;;;;;;;5071950;28;20035;-76
2021/12/24 02:01:47;;;;;;;36.30;21.85;;;;;;;;;;5070435;28;20021;-76
2021/12/24 02:04:14;;;;;;;38.38;23.98;;;;;;;;;;5072020;28;20036;-76
2021/12/24 02:06:40;;;;;;;43.53;25.88;;;;;;;;;;5071635;28;20111;-76
2021/12/24 02:09:06;;;;;;;40.55;23.77;;;;;;;;;;5071916;28;20036;-77
2021/12/24 02:11:38;;;;;;;27.10;18.35;;;;;;;;;;5071779;28;20029;-77
2021/12/24 02:14:16;;;;;;;26.35;17.40;;;;;;;;;;5071907;28;20036;-76
2021/12/24 02:16:54;;;;;;;24.15;15.75;;;;;;;;;;5070220;28;20094;-76
2021/12/24 02:30:20;;;;;;;28.50;18.13;;;;;;;;;;5071452;28;20038;-76
2021/12/24 02:32:46;;;;;;;25.80;16.67;;;;;;;;;;5071689;28;20024;-77
2021/12/24 02:35:12;;;;;;;20.38;14.60;;;;;;;;;;5071681;28;20028;-76
2021/12/24 02:37:38;;;;;;;20.98;14.13;;;;;;;;;;5071373;28;20115;-77
2021/12/24 02:40:05;;;;;;;24.65;15.55;;;;;;;;;;5071705;28;20090;-76
2021/12/24 02:42:34;;;;;;;24.23;15.23;;;;;;;;;;5074653;28;20078;-75
2021/12/24 02:45:00;;;;;;;19.67;13.68;;;;;;;;;;5075248;28;20051;-76
2021/12/24 02:55:28;;;;;;;41.55;25.85;;;;;;;;;;5075168;28;20141;-76
2021/12/24 02:57:54;;;;;;;45.83;28.40;;;;;;;;;;5073441;28;20120;-76
2021/12/24 03:00:25;;;;;;;32.15;20.90;;;;;;;;;;5074983;28;20052;-76
2021/12/24 03:02:51;;;;;;;39.72;23.65;;;;;;;;;;5074647;28;20024;-76
2021/12/24 03:05:24;;;;;;;32.47;22.10;;;;;;;;;;5073515;28;20048;-76
2021/12/24 03:07:51;;;;;;;28.88;19.10;;;;;;;;;;5074697;28;20025;-76
2021/12/24 03:10:18;;;;;;;24.13;16.42;;;;;;;;;;5074830;28;20136;-77
2021/12/24 03:12:49;;;;;;;49.47;28.17;;;;;;;;;;5073305;28;20027;-76
2021/12/24 03:15:16;;;;;;;42.78;25.98;;;;;;;;;;5074785;28;20036;-76
2021/12/24 03:17:48;;;;;;;123.65;54.38;;;;;;;;;;5074375;28;20028;-76
2021/12/24 03:20:14;;;;;;;34.45;21.15;;;;;;;;;;5074698;28;20029;-76
2021/12/24 03:25:26;;;;;;;30.88;21.75;;;;;;;;;;5074177;28;20056;-76
2021/12/24 03:27:55;;;;;;;36.00;22.48;;;;;;;;;;5073273;28;20033;-76
2021/12/24 03:30:21;;;;;;;41.67;25.67;;;;;;;;;;5074371;28;20137;-76
2021/12/24 03:32:47;;;;;;;45.85;29.52;;;;;;;;;;5074253;28;20032;-76
2021/12/24 03:35:14;;;;;;;38.90;26.40;;;;;;;;;;5072313;28;20177;-75
2021/12/24 03:37:40;;;;;;;40.47;25.05;;;;;;;;;;5073528;28;20036;-76
2021/12/24 03:40:06;;;;;;;54.13;32.05;;;;;;;;;;5074222;28;20032;-76
2021/12/24 03:42:36;;;;;;;55.97;34.80;;;;;;;;;;5072471;28;20020;-76
2021/12/24 03:45:18;;;;;;;62.00;37.25;;;;;;;;;;5074163;28;20021;-77
2021/12/24 03:47:51;;;;;;;54.47;32.28;;;;;;;;;;5070265;28;20025;-76
2021/12/24 03:50:18;;;;;;;51.67;31.88;;;;;;;;;;5073111;28;20117;-76
2021/12/24 03:53:03;;;;;;;56.78;31.98;;;;;;;;;;5072553;28;20457;-76
2021/12/24 03:55:29;;;;;;;38.72;23.92;;;;;;;;;;5069140;28;20043;-76
2021/12/24 03:57:56;;;;;;;36.88;22.30;;;;;;;;;;5072047;28;20391;-76
2021/12/24 04:00:24;;;;;;;35.80;22.40;;;;;;;;;;5073228;28;20059;-76
2021/12/24 04:02:50;;;;;;;38.45;27.17;;;;;;;;;;5070592;28;20091;-76
2021/12/24 04:05:16;;;;;;;30.88;20.35;;;;;;;;;;5072971;28;20013;-76
2021/12/24 04:07:42;;;;;;;28.63;18.98;;;;;;;;;;5073237;28;20514;-76
2021/12/24 04:10:25;;;;;;;26.67;17.23;;;;;;;;;;5072971;28;20099;-76
2021/12/24 04:12:51;;;;;;;22.25;15.13;;;;;;;;;;5070223;28;20028;-75
2021/12/24 04:15:17;;;;;;;25.63;17.20;;;;;;;;;;5072939;28;20339;-76
2021/12/24 04:17:44;;;;;;;35.30;20.02;;;;;;;;;;5073092;28;20089;-76
2021/12/24 04:25:39;;;;;;;34.13;21.35;;;;;;;;;;5073238;28;20514;-76
2021/12/24 04:28:06;;;;;;;36.75;23.00;;;;;;;;;;5071987;28;20035;-76
2021/12/24 04:30:39;;;;;;;41.95;26.58;;;;;;;;;;5072857;28;20031;-76
2021/12/24 04:33:18;;;;;;;39.70;26.87;;;;;;;;;;5073255;28;20024;-76
2021/12/24 04:36:43;;;;;;;50.95;29.27;;;;;;;;;;5071907;28;20032;-76
2021/12/24 04:39:04;;;;;;;70.38;37.55;;;;;;;;;;5067101;28;20031;-76
2021/12/24 05:03:07;;;;;;;113.45;51.78;;;;;;;;;;5071164;28;20044;-76
2021/12/24 05:10:36;;;;;;;31.63;20.05;;;;;;;;;;5071206;28;20028;-76
2021/12/24 05:13:02;;;;;;;55.83;31.50;;;;;;;;;;5071198;28;20086;-76
2021/12/24 05:15:29;;;;;;;44.65;27.80;;;;;;;;;;5071550;28;20391;-75
2021/12/24 05:23:09;;;;;;;46.88;29.25;;;;;;;;;;5069138;28;20398;-76
2021/12/24 05:25:38;;;;;;;44.67;26.85;;;;;;;;;;5070359;28;20029;-76
2021/12/24 05:28:05;;;;;;;42.22;25.13;;;;;;;;;;5072253;28;20418;-75
2021/12/24 05:30:32;;;;;;;38.45;22.92;;;;;;;;;;5071828;28;20028;-75
2021/12/24 05:32:58;;;;;;;37.75;23.75;;;;;;;;;;5070921;28;20040;-75
2021/12/24 05:35:24;;;;;;;72.57;39.70;;;;;;;;;;5071715;28;20060;-76
2021/12/24 05:37:50;;;;;;;86.50;46.42;;;;;;;;;;5070667;28;20037;-76
2021/12/24 05:40:16;;;;;;;80.13;44.70;;;;;;;;;;5070828;28;20042;-76
2021/12/24 05:42:42;;;;;;;61.15;36.60;;;;;;;;;;5070177;28;20369;-76
2021/12/24 05:45:11;;;;;;;57.65;32.65;;;;;;;;;;5070662;28;20032;-76
2021/12/24 05:47:38;;;;;;;63.15;33.33;;;;;;;;;;5070885;28;20536;-76
2021/12/24 05:50:05;;;;;;;65.28;36.65;;;;;;;;;;5071709;28;20032;-75
2021/12/24 05:52:32;;;;;;;98.22;58.75;;;;;;;;;;5071276;28;20032;-75
2021/12/24 05:54:58;;;;;;;99.63;57.47;;;;;;;;;;5070653;28;20032;-76
2021/12/24 05:57:26;;;;;;;78.45;45.10;;;;;;;;;;5071759;28;20036;-76
2021/12/24 05:59:52;;;;;;;66.03;39.75;;;;;;;;;;5071567;28;20033;-76
2021/12/24 06:02:22;;;;;;;60.17;35.83;;;;;;;;;;5071981;28;20024;-76
2021/12/24 06:04:48;;;;;;;49.08;29.10;;;;;;;;;;5070291;28;20086;-76
2021/12/24 06:07:14;;;;;;;50.72;30.25;;;;;;;;;;5071922;28;20028;-76
2021/12/24 06:09:40;;;;;;;53.35;32.17;;;;;;;;;;5071393;28;20025;-76
2021/12/24 06:12:06;;;;;;;62.08;36.45;;;;;;;;;;5071741;28;20112;-76
2021/12/24 06:14:32;;;;;;;81.75;44.28;;;;;;;;;;5071205;28;20544;-76
2021/12/24 06:17:02;;;;;;;73.03;38.92;;;;;;;;;;5072914;28;20075;-75
2021/12/24 06:19:29;;;;;;;51.40;31.23;;;;;;;;;;5073638;28;20025;-75
2021/12/24 06:21:56;;;;;;;52.17;29.52;;;;;;;;;;5076171;28;20112;-74
2021/12/24 06:24:22;;;;;;;58.05;33.42;;;;;;;;;;5075146;28;20051;-76
2021/12/24 06:26:49;;;;;;;49.53;29.10;;;;;;;;;;5075794;28;20020;-76
2021/12/24 06:29:15;;;;;;;53.13;31.52;;;;;;;;;;5075291;28;20103;-76
2021/12/24 06:31:44;;;;;;;40.88;24.83;;;;;;;;;;5070765;28;20112;-75
2021/12/24 06:34:13;;;;;;;44.78;23.52;;;;;;;;;;5070777;28;20059;-76
2021/12/24 06:36:42;;;;;;;47.70;27.92;;;;;;;;;;5064373;28;20074;-76
2021/12/24 06:39:09;;;;;;;50.40;33.88;;;;;;;;;;5054722;28;20051;-75
2021/12/24 06:41:35;;;;;;;122.35;73.70;;;;;;;;;;5054896;28;20052;-76
2021/12/24 06:44:03;;;;;;;157.05;94.10;;;;;;;;;;5054848;28;20024;-75
2021/12/24 06:46:29;;;;;;;149.68;92.32;;;;;;;;;;5055686;28;20128;-77
2021/12/24 06:48:56;;;;;;;163.88;97.75;;;;;;;;;;5071986;28;20103;-78
2021/12/24 06:51:41;;;;;;;190.40;113.72;;;;;;;;;;5055028;28;20013;-76
2021/12/24 06:54:10;;;;;;;178.88;108.43;;;;;;;;;;5054756;28;20032;-75
2021/12/24 06:56:36;;;;;;;185.98;106.22;;;;;;;;;;5054284;28;20037;-75
2021/12/24 06:59:09;;;;;;;137.63;80.85;;;;;;;;;;5053473;28;20025;-75
2021/12/24 07:01:35;;;;;;;112.93;63.63;;;;;;;;;;5057798;28;20029;-74
2021/12/24 07:04:01;;;;;;;85.18;52.25;;;;;;;;;;5065599;28;20054;-75
2021/12/24 07:06:28;;;;;;;81.70;50.13;;;;;;;;;;5053032;28;20132;-76
2021/12/24 07:08:55;;;;;;;80.53;47.92;;;;;;;;;;5054921;28;20029;-76
2021/12/24 07:11:21;;;;;;;59.63;34.85;;;;;;;;;;5054807;28;20017;-75
2021/12/24 07:13:47;;;;;;;68.72;42.85;;;;;;;;;;5054557;28;20399;-75
2021/12/24 07:16:13;;;;;;;66.95;40.28;;;;;;;;;;5054512;28;20065;-76
2021/12/24 07:18:41;;;;;;;56.50;33.75;;;;;;;;;;5051098;28;20559;-76
2021/12/24 07:21:08;;;;;;;62.88;37.13;;;;;;;;;;5053309;28;20043;-76
2021/12/24 07:23:34;;;;;;;45.65;31.63;;;;;;;;;;5052598;28;20053;-75
2021/12/24 07:26:00;;;;;;;43.42;28.35;;;;;;;;;;5053420;28;20060;-76
2021/12/24 07:28:26;;;;;;;38.00;25.00;;;;;;;;;;5051705;28;20032;-75
2021/12/24 07:30:52;;;;;;;44.80;28.67;;;;;;;;;;5052916;28;20028;-74
2021/12/24 07:33:19;;;;;;;51.95;30.65;;;;;;;;;;5052823;28;20569;-78
2021/12/24 07:35:46;;;;;;;59.53;37.17;;;;;;;;;;5053246;28;20033;-77
2021/12/24 07:38:15;;;;;;;57.95;35.53;;;;;;;;;;5053084;28;20055;-75
2021/12/24 07:40:45;;;;;;;71.60;43.33;;;;;;;;;;5052585;28;20554;-77
2021/12/24 07:43:13;;;;;;;54.40;31.92;;;;;;;;;;5059120;28;20036;-77
2021/12/24 07:45:40;;;;;;;63.65;38.70;;;;;;;;;;5059859;28;20478;-76
2021/12/24 07:48:16;;;;;;;71.80;43.33;;;;;;;;;;5061006;28;20111;-76
2021/12/24 07:53:15;;;;;;;65.40;40.75;;;;;;;;;;5052366;28;20052;-74
2021/12/24 07:55:41;;;;;;;58.45;37.58;;;;;;;;;;5052616;28;20399;-75
2021/12/24 07:58:08;;;;;;;57.72;37.78;;;;;;;;;;5052485;28;20029;-77
2021/12/24 08:00:35;;;;;;;61.53;41.42;;;;;;;;;;5051346;28;20025;-75
2021/12/24 08:03:02;;;;;;;97.38;60.97;;;;;;;;;;5052579;28;20056;-76
2021/12/24 08:05:29;;;;;;;66.05;40.58;;;;;;;;;;5051933;28;20029;-75
2021/12/24 08:07:55;;;;;;;71.05;39.33;;;;;;;;;;5050970;28;20046;-75
2021/12/24 08:10:24;;;;;;;57.55;36.47;;;;;;;;;;5052353;28;20019;-75
2021/12/24 08:12:53;;;;;;;48.13;31.42;;;;;;;;;;5059595;28;20391;-76
2021/12/24 08:15:21;;;;;;;49.05;33.00;;;;;;;;;;5052252;28;20045;-75
2021/12/24 08:17:47;;;;;;;45.67;30.25;;;;;;;;;;5055082;28;20033;-76
2021/12/24 08:20:15;;;;;;;44.72;29.40;;;;;;;;;;5051958;28;20436;-76
2021/12/24 08:22:41;;;;;;;40.30;25.77;;;;;;;;;;5052040;28;20043;-74
2021/12/24 08:25:09;;;;;;;31.50;19.75;;;;;;;;;;5052296;28;20053;-76
2021/12/24 08:27:37;;;;;;;34.97;21.65;;;;;;;;;;5051940;28;20078;-75
2021/12/24 08:30:04;;;;;;;31.70;20.98;;;;;;;;;;5051583;28;20039;-75
2021/12/24 08:32:30;;;;;;;36.22;22.77;;;;;;;;;;5068447;28;20162;-77
2021/12/24 08:34:59;;;;;;;45.97;23.42;;;;;;;;;;5063119;28;20028;-76
2021/12/24 08:37:25;;;;;;;36.72;24.38;;;;;;;;;;5067566;28;20254;-75
2021/12/24 08:39:51;;;;;;;35.55;24.83;;;;;;;;;;5065787;28;20178;-75
2021/12/24 08:42:18;;;;;;;40.90;26.55;;;;;;;;;;5052174;28;20549;-78
2021/12/24 08:44:44;;;;;;;41.65;26.08;;;;;;;;;;5055107;28;20036;-75
2021/12/24 08:47:10;;;;;;;34.38;24.42;;;;;;;;;;5055352;28;20029;-74
2021/12/24 08:49:36;;;;;;;38.20;26.42;;;;;;;;;;5051717;28;20769;-75
2021/12/24 08:52:04;;;;;;;88.72;51.65;;;;;;;;;;5050351;28;20113;-78
2021/12/24 08:54:30;;;;;;;63.88;42.90;;;;;;;;;;5051734;28;20036;-76
2021/12/24 08:56:56;;;;;;;73.90;48.00;;;;;;;;;;5058669;28;20032;-75
2021/12/24 08:59:23;;;;;;;78.68;51.95;;;;;;;;;;5064545;28;20024;-76
2021/12/24 09:01:50;;;;;;;74.95;51.25;;;;;;;;;;5051523;28;20029;-77
2021/12/24 09:04:16;;;;;;;89.25;57.80;;;;;;;;;;5051481;28;20033;-75
2021/12/24 09:06:42;;;;;;;90.10;60.22;;;;;;;;;;5048008;28;20062;-74
2021/12/24 09:09:10;;;;;;;86.82;58.40;;;;;;;;;;5050791;28;20465;-77
2021/12/24 09:11:37;;;;;;;68.95;46.88;;;;;;;;;;5057821;28;20043;-74
2021/12/24 09:14:03;;;;;;;54.85;39.25;;;;;;;;;;5049180;28;20025;-74
2021/12/24 09:16:30;;;;;;;60.10;41.88;;;;;;;;;;5050749;28;20391;-74
2021/12/24 09:19:02;;;;;;;105.25;68.93;;;;;;;;;;5050632;28;20498;-74
2021/12/24 09:21:29;;;;;;;115.35;77.82;;;;;;;;;;5065731;28;20028;-75
2021/12/24 09:23:57;;;;;;;109.05;65.10;;;;;;;;;;5059670;28;20140;-74
2021/12/24 09:26:28;;;;;;;99.72;67.35;;;;;;;;;;5051376;28;20035;-75
2021/12/24 09:28:57;;;;;;;99.10;66.85;;;;;;;;;;5050459;28;20106;-73
2021/12/24 09:31:23;;;;;;;105.90;68.40;;;;;;;;;;5056303;28;20035;-73
2021/12/24 09:33:50;;;;;;;102.53;68.30;;;;;;;;;;5050734;28;20586;-74
2021/12/24 09:36:23;;;;;;;85.60;60.10;;;;;;;;;;5050801;28;20416;-75
2021/12/24 09:38:49;;;;;;;69.82;48.97;;;;;;;;;;5050468;28;20124;-76
2021/12/24 09:41:15;;;;;;;76.30;49.40;;;;;;;;;;5051293;28;20100;-75
2021/12/24 09:43:44;;;;;;;56.35;39.72;;;;;;;;;;5051176;28;20057;-73
2021/12/24 09:46:12;;;;;;;48.65;34.17;;;;;;;;;;5062286;28;20039;-73
2021/12/24 09:48:41;;;;;;;58.22;37.88;;;;;;;;;;5065835;28;20064;-74
2021/12/24 09:51:09;;;;;;;47.13;32.20;;;;;;;;;;5064725;28;20032;-74
2021/12/24 09:53:39;;;;;;;19.52;12.75;;;;;;;;;;5050804;28;20079;-73
2021/12/24 09:56:05;;;;;;;36.45;23.33;;;;;;;;;;5055374;28;20071;-76
2021/12/24 09:58:32;;;;;;;43.55;29.27;;;;;;;;;;5050366;28;20033;-76
2021/12/24 10:00:58;;;;;;;51.35;35.35;;;;;;;;;;5050375;28;20053;-74
2021/12/24 10:03:32;;;;;;;47.10;32.78;;;;;;;;;;5050826;28;20024;-73
2021/12/24 10:05:58;;;;;;;48.13;33.45;;;;;;;;;;5050495;28;20079;-72
2021/12/24 10:08:25;;;;;;;43.20;29.70;;;;;;;;;;5050092;28;20066;-74
2021/12/24 10:10:53;;;;;;;45.92;31.13;;;;;;;;;;5049158;28;20547;-75
2021/12/24 10:13:35;;;;;;;50.67;35.10;;;;;;;;;;5048834;28;20442;-76
2021/12/24 10:16:06;;;;;;;48.65;34.90;;;;;;;;;;5050213;28;20036;-73
2021/12/24 10:18:42;;;;;;;45.20;30.58;;;;;;;;;;5062930;28;20064;-75
2021/12/24 10:21:22;;;;;;;51.92;36.05;;;;;;;;;;5050749;28;20039;-78
2021/12/24 10:24:17;;;;;;;44.85;30.80;;;;;;;;;;5058012;28;20110;-78
2021/12/24 10:26:45;;;;;;;41.63;26.98;;;;;;;;;;5050409;28;20045;-76
2021/12/24 10:29:12;;;;;;;32.63;22.05;;;;;;;;;;5050331;28;20025;-75
2021/12/24 10:31:38;;;;;;;23.50;16.45;;;;;;;;;;5050978;28;20041;-79
2021/12/24 10:34:09;;;;;;;28.38;16.25;;;;;;;;;;5050401;28;20037;-78
2021/12/24 10:37:05;;;;;;;20.48;13.07;;;;;;;;;;5050176;28;20440;-77
2021/12/24 10:39:34;;;;;;;19.83;12.75;;;;;;;;;;5049541;28;20063;-77
2021/12/24 10:42:01;;;;;;;27.95;13.63;;;;;;;;;;5048567;28;20476;-74
2021/12/24 10:44:29;;;;;;;27.05;14.23;;;;;;;;;;5050165;28;20063;-77
2021/12/24 10:47:01;;;;;;;42.22;23.85;;;;;;;;;;5055053;28;20375;-73
2021/12/24 10:54:58;;;;;;;24.58;16.25;;;;;;;;;;5050274;28;20047;-76
2021/12/24 10:57:28;;;;;;;20.80;14.05;;;;;;;;;;5049738;28;20836;-75
2021/12/24 10:59:56;;;;;;;12.45;9.23;;;;;;;;;;5050309;28;20023;-74
2021/12/24 11:02:27;;;;;;;15.25;10.55;;;;;;;;;;5051482;28;20028;-77
2021/12/24 11:04:53;;;;;;;10.63;8.30;;;;;;;;;;5053515;28;20029;-76
2021/12/24 11:07:35;;;;;;;12.80;8.85;;;;;;;;;;5052180;28;20029;-76
2021/12/24 11:10:12;;;;;;;13.48;9.25;;;;;;;;;;5053207;28;20487;-75
2021/12/24 11:12:41;;;;;;;12.50;9.20;;;;;;;;;;5053042;28;20021;-76
2021/12/24 11:15:25;;;;;;;13.65;8.75;;;;;;;;;;5053465;28;20115;-77
2021/12/24 11:17:55;;;;;;;7.50;5.67;;;;;;;;;;5055035;28;20037;-75
2021/12/24 11:20:21;;;;;;;8.32;7.10;;;;;;;;;;5059796;28;20056;-77
2021/12/24 11:23:01;;;;;;;10.15;6.75;;;;;;;;;;5052880;28;20507;-75
2021/12/24 11:25:31;;;;;;;10.20;7.18;;;;;;;;;;5050894;28;20052;-73
2021/12/24 11:27:58;;;;;;;13.95;9.35;;;;;;;;;;5053157;28;20029;-73
2021/12/24 11:30:25;;;;;;;10.35;6.95;;;;;;;;;;5053012;28;20141;-78
2021/12/24 11:32:51;;;;;;;14.18;9.75;;;;;;;;;;5053085;28;20068;-77
2021/12/24 11:35:18;;;;;;;9.82;5.80;;;;;;;;;;5053044;28;20491;-77
2021/12/24 11:37:47;;;;;;;11.68;6.47;;;;;;;;;;5052782;28;20096;-75
2021/12/24 11:40:14;;;;;;;7.50;5.28;;;;;;;;;;5051586;28;20025;-76
2021/12/24 11:42:45;;;;;;;6.93;5.45;;;;;;;;;;5052650;28;20575;-73
2021/12/24 11:45:14;;;;;;;7.88;5.30;;;;;;;;;;5053198;28;20044;-74
2021/12/24 11:47:40;;;;;;;7.43;5.05;;;;;;;;;;5065252;28;20033;-76
2021/12/24 11:50:06;;;;;;;17.50;6.38;;;;;;;;;;5059155;28;20021;-73
2021/12/24 11:52:33;;;;;;;7.70;4.82;;;;;;;;;;5054649;28;20029;-77
2021/12/24 11:55:00;;;;;;;8.25;6.05;;;;;;;;;;5054465;28;20028;-77
2021/12/24 11:57:26;;;;;;;9.75;6.35;;;;;;;;;;5067418;28;20054;-74
2021/12/24 11:59:52;;;;;;;9.45;6.72;;;;;;;;;;5067759;28;20472;-74
2021/12/24 12:02:37;;;;;;;11.25;6.65;;;;;;;;;;5059072;28;20020;-77
2021/12/24 12:05:03;;;;;;;;;;;;;;;;;;5055490;28;20071;-75
2021/12/24 12:07:29;;;;;;;10.23;6.75;;;;;;;;;;5052524;28;20434;-74
2021/12/24 12:09:56;;;;;;;10.60;7.03;;;;;;;;;;5052265;28;20033;-75
2021/12/24 12:12:34;;;;;;;10.23;6.90;;;;;;;;;;5051938;28;20541;-76
2021/12/24 12:15:19;;;;;;;10.68;8.23;;;;;;;;;;5059188;28;20115;-75
2021/12/24 12:17:50;;;;;;;13.02;8.13;;;;;;;;;;5067074;28;20033;-78
2021/12/24 12:20:35;;;;;;;15.25;10.00;;;;;;;;;;5052238;28;20349;-78
2021/12/24 12:23:02;;;;;;;15.57;9.57;;;;;;;;;;5051996;28;20037;-75
2021/12/24 12:25:36;;;;;;;14.57;9.13;;;;;;;;;;5051801;28;20036;-76
2021/12/24 12:28:07;;;;;;;17.30;10.13;;;;;;;;;;5052112;28;20036;-77
2021/12/24 12:30:54;;;;;;;18.52;11.48;;;;;;;;;;5051347;28;20029;-77
2021/12/24 12:33:35;;;;;;;19.58;12.90;;;;;;;;;;5052310;28;20025;-76
2021/12/24 12:36:04;;;;;;;18.92;12.07;;;;;;;;;;5052376;28;20125;-78
2021/12/24 12:38:32;;;;;;;19.88;11.73;;;;;;;;;;5056350;28;20032;-74
2021/12/24 12:41:17;;;;;;;15.68;11.55;;;;;;;;;;5067555;28;20048;-75
2021/12/24 12:43:43;;;;;;;;;;;;;;;;;;5062753;28;20060;-79
2021/12/24 12:46:21;;;;;;;19.90;11.23;;;;;;;;;;5072032;28;19958;-78
2021/12/24 12:48:49;;;;;;;13.05;8.55;;;;;;;;;;5070157;28;20115;-78
2021/12/24 12:51:16;;;;;;;13.85;8.95;;;;;;;;;;5069333;28;20028;-78
2021/12/24 12:53:44;;;;;;;10.25;7.20;;;;;;;;;;5064673;28;20114;-76
2021/12/24 12:56:17;;;;;;;12.18;8.27;;;;;;;;;;5065527;28;20127;-76
2021/12/24 12:58:46;;;;;;;11.73;7.05;;;;;;;;;;5068828;28;20387;-78
2021/12/24 13:01:17;;;;;;;14.27;6.53;;;;;;;;;;5071707;28;20631;-74
2021/12/24 13:03:58;;;;;;;8.70;5.85;;;;;;;;;;5069061;28;20029;-75
2021/12/24 13:06:25;;;;;;;11.30;8.10;;;;;;;;;;5053947;28;20029;-79
2021/12/24 13:08:52;;;;;;;13.10;7.63;;;;;;;;;;5061876;28;20032;-78
2021/12/24 13:11:20;;;;;;;12.18;6.82;;;;;;;;;;5069347;28;20387;-81
2021/12/24 13:13:52;;;;;;;9.15;6.07;;;;;;;;;;5067017;28;20028;-78
2021/12/24 13:16:20;;;;;;;9.07;6.57;;;;;;;;;;5067744;28;20550;-78
2021/12/24 13:18:59;;;;;;;12.40;6.30;;;;;;;;;;5070775;28;20016;-74
2021/12/24 13:24:11;;;;;;;16.38;11.50;;;;;;;;;;5067587;28;20122;-76
2021/12/24 13:26:38;;;;;;;13.48;8.55;;;;;;;;;;5066688;28;20077;-79
2021/12/24 13:29:12;;;;;;;9.30;6.35;;;;;;;;;;5067901;28;20146;-77
2021/12/24 13:31:39;;;;;;;9.70;6.68;;;;;;;;;;5070171;28;20062;-80
2021/12/24 13:34:09;;;;;;;8.82;6.38;;;;;;;;;;5067109;28;20033;-76
2021/12/24 13:36:35;;;;;;;8.27;5.60;;;;;;;;;;5069195;28;20036;-82
2021/12/24 13:39:20;;;;;;;10.80;7.07;;;;;;;;;;5069968;28;20117;-75
2021/12/24 13:41:47;;;;;;;22.70;14.88;;;;;;;;;;5068761;28;20111;-80
2021/12/24 13:44:24;;;;;;;18.13;12.65;;;;;;;;;;5066801;28;20056;-77
2021/12/24 13:47:12;;;;;;;15.68;11.40;;;;;;;;;;5070170;28;20408;-77
2021/12/24 13:55:43;;;;;;;16.02;9.65;;;;;;;;;;5068152;28;20517;-81
2021/12/24 13:58:10;;;;;;;23.70;14.77;;;;;;;;;;5071549;28;20053;-80
2021/12/24 14:00:38;;;;;;;25.17;16.73;;;;;;;;;;5064757;28;20029;-81
2021/12/24 14:03:06;;;;;;;19.33;13.02;;;;;;;;;;5054115;28;20031;-78
2021/12/24 14:05:32;;;;;;;25.63;16.90;;;;;;;;;;5072023;28;20028;-77
2021/12/24 14:08:15;;;;;;;29.13;16.48;;;;;;;;;;5071661;28;20064;-77
2021/12/24 14:10:42;;;;;;;27.05;17.55;;;;;;;;;;5070283;28;20475;-79
2021/12/24 14:13:19;;;;;;;20.27;14.40;;;;;;;;;;5071335;28;20029;-78
2021/12/24 14:24:04;;;;;;;17.95;12.52;;;;;;;;;;5069923;28;20044;-77
2021/12/24 14:26:34;;;;;;;16.60;13.18;;;;;;;;;;5071469;28;20039;-82
2021/12/24 14:29:05;;;;;;;18.55;12.55;;;;;;;;;;5071508;28;20036;-76
2021/12/24 14:31:31;;;;;;;15.52;11.63;;;;;;;;;;5071370;28;20060;-76
2021/12/24 14:33:57;;;;;;;14.48;10.85;;;;;;;;;;5070633;28;20047;-78
2021/12/24 14:36:24;;;;;;;13.38;9.40;;;;;;;;;;5071527;28;20094;-76
2021/12/24 14:38:50;;;;;;;15.75;10.32;;;;;;;;;;5075643;28;20078;-77
2021/12/24 14:41:20;;;;;;;13.18;9.13;;;;;;;;;;5075015;28;20479;-78
2021/12/24 14:43:48;;;;;;;13.90;10.40;;;;;;;;;;5054148;28;20037;-79
2021/12/24 14:46:14;;;;;;;15.85;12.10;;;;;;;;;;5054834;28;20040;-78
2021/12/24 14:48:42;;;;;;;15.07;11.68;;;;;;;;;;5055250;28;20117;-75
2021/12/24 14:51:10;;;;;;;13.98;10.23;;;;;;;;;;5055049;28;20029;-76
2021/12/24 14:53:40;;;;;;;12.77;9.48;;;;;;;;;;5055183;28;20025;-80
2021/12/24 14:56:20;;;;;;;15.90;9.77;;;;;;;;;;5068758;28;20107;-79
2021/12/24 14:58:50;;;;;;;21.92;12.88;;;;;;;;;;5074988;28;20028;-80
2021/12/24 15:01:16;;;;;;;19.42;12.38;;;;;;;;;;5074751;28;20017;-79
2021/12/24 15:03:46;;;;;;;25.13;15.00;;;;;;;;;;5074646;28;20062;-77
2021/12/24 15:06:15;;;;;;;25.38;15.70;;;;;;;;;;5074597;28;20043;-79
2021/12/24 15:08:41;;;;;;;30.65;20.77;;;;;;;;;;5074544;28;20403;-79
2021/12/24 15:11:14;;;;;;;20.30;16.17;;;;;;;;;;5073401;28;20190;-80
2021/12/24 15:13:50;;;;;;;32.55;21.80;;;;;;;;;;5074245;28;20058;-81
2021/12/24 15:16:16;;;;;;;38.75;27.20;;;;;;;;;;5074488;28;20017;-79
2021/12/24 15:18:50;;;;;;;39.25;26.70;;;;;;;;;;5074342;28;20025;-80
2021/12/24 15:21:20;;;;;;;137.82;93.80;;;;;;;;;;5067022;28;20119;-81
2021/12/24 15:23:46;;;;;;;90.75;57.40;;;;;;;;;;5074464;28;20048;-79
2021/12/24 15:26:13;;;;;;;103.45;66.22;;;;;;;;;;5074342;28;20031;-79
2021/12/24 15:28:40;;;;;;;98.03;60.60;;;;;;;;;;5074213;28;20062;-80
2021/12/24 15:31:06;;;;;;;81.68;53.78;;;;;;;;;;5074149;28;20471;-80
2021/12/24 15:33:32;;;;;;;100.53;63.38;;;;;;;;;;5072931;28;20031;-81
2021/12/24 15:35:59;;;;;;;67.85;44.53;;;;;;;;;;5074375;28;20031;-78
2021/12/24 15:38:25;;;;;;;57.35;35.42;;;;;;;;;;5074124;28;20448;-79
2021/12/24 15:40:51;;;;;;;67.45;43.25;;;;;;;;;;5072795;28;20036;-78
2021/12/24 15:43:18;;;;;;;74.68;48.95;;;;;;;;;;5074348;28;20521;-78
2021/12/24 15:45:45;;;;;;;88.82;58.25;;;;;;;;;;5073071;28;20471;-81
2021/12/24 15:48:11;;;;;;;103.20;68.80;;;;;;;;;;5073108;28;20087;-80
2021/12/24 15:50:37;;;;;;;111.70;65.35;;;;;;;;;;5073668;28;20448;-81
2021/12/24 15:53:07;;;;;;;78.55;49.08;;;;;;;;;;5071541;28;20101;-82
2021/12/24 15:55:36;;;;;;;48.97;32.42;;;;;;;;;;5073910;28;20039;-79
2021/12/24 15:58:04;;;;;;;42.97;29.70;;;;;;;;;;5074514;28;20479;-81
2021/12/24 16:00:30;;;;;;;92.28;60.00;;;;;;;;;;5073609;28;20029;-80
2021/12/24 16:02:56;;;;;;;159.07;100.53;;;;;;;;;;5074353;28;20031;-79
2021/12/24 16:05:23;;;;;;;277.67;193.07;;;;;;;;;;5073903;28;20033;-81
2021/12/24 16:07:49;;;;;;;86.80;63.08;;;;;;;;;;5073610;28;20479;-80
2021/12/24 16:10:16;;;;;;;121.13;81.70;;;;;;;;;;5073972;28;20048;-79
2021/12/24 16:12:42;;;;;;;130.85;87.63;;;;;;;;;;5073743;28;20086;-81
2021/12/24 16:15:11;;;;;;;132.50;87.85;;;;;;;;;;5074383;28;20052;-79
2021/12/24 16:17:37;;;;;;;127.00;83.88;;;;;;;;;;5074215;28;20419;-79
2021/12/24 16:20:04;;;;;;;111.00;76.72;;;;;;;;;;5075344;28;20464;-79
2021/12/24 16:22:31;;;;;;;124.85;89.32;;;;;;;;;;5074419;28;20046;-80
2021/12/24 16:24:57;;;;;;;108.40;76.82;;;;;;;;;;5073469;28;20063;-79
2021/12/24 16:27:23;;;;;;;107.20;70.88;;;;;;;;;;5073352;28;20085;-80
2021/12/24 16:29:53;;;;;;;103.60;64.50;;;;;;;;;;5073172;28;20622;-82
2021/12/24 16:32:22;;;;;;;109.53;69.72;;;;;;;;;;5073183;28;20120;-80
2021/12/24 16:34:48;;;;;;;90.38;59.45;;;;;;;;;;5073627;28;20033;-79